Time;durP1;ratioP1;P1;durP2;ratioP2;P2;SDS_P1;SDS_P2;PMS_P1;PMS_P2;Temp;Humidity;BMP_temperature;BMP_pressure;BME280_temperature;BME280_humidity;BME280_pressure;Samples;Min_cycle;Max_cycle;Signal;HPM_P1;HPM_P2
2023/12/03 00:00:56;;;;;;;26.63;10.88;;;3.30;99.90;;;;;;7383489;19;19910;-73
2023/12/03 00:03:26;;;;;;;22.75;10.50;;;3.30;99.90;;;;;;7405564;19;20278;-73
2023/12/03 00:05:55;;;;;;;46.90;12.13;;;3.30;99.90;;;;;;7383268;19;20014;-72
2023/12/03 00:08:23;;;;;;;26.60;11.95;;;3.20;99.90;;;;;;7382553;19;20006;-72
2023/12/03 00:10:52;;;;;;;25.77;12.00;;;3.20;99.90;;;;;;7383331;19;20007;-72
2023/12/03 00:13:23;;;;;;;32.10;12.15;;;3.20;99.90;;;;;;7386888;19;20756;-73
2023/12/03 00:15:52;;;;;;;;;;;3.20;99.90;;;;;;7408512;19;20011;-73
2023/12/03 00:18:20;;;;;;;16.63;9.82;;;3.20;99.90;;;;;;7381319;19;19920;-72
2023/12/03 00:20:49;;;;;;;37.75;11.40;;;3.20;99.90;;;;;;7385570;19;20168;-72
2023/12/03 00:23:18;;;;;;;24.60;13.02;;;3.20;99.90;;;;;;7383510;19;20013;-72
2023/12/03 00:25:46;;;;;;;38.00;15.10;;;3.20;99.90;;;;;;7383509;19;20007;-73
2023/12/03 00:28:15;;;;;;;37.80;16.15;;;3.30;99.90;;;;;;7383217;19;20078;-72
2023/12/03 00:30:49;;;;;;;34.15;15.60;;;3.20;99.90;;;;;;7404342;19;20010;-72
2023/12/03 00:33:18;;;;;;;34.60;14.73;;;3.20;99.90;;;;;;7386291;19;20011;-73
2023/12/03 00:35:46;;;;;;;32.28;14.80;;;3.20;99.90;;;;;;7382497;19;20012;-72
2023/12/03 00:38:15;;;;;;;40.30;14.93;;;3.20;99.90;;;;;;7382789;19;19999;-73
2023/12/03 00:40:44;;;;;;;40.75;15.93;;;3.30;99.90;;;;;;7383167;19;20369;-72
2023/12/03 00:43:12;;;;;;;33.13;14.55;;;3.30;99.90;;;;;;7382976;19;20020;-73
2023/12/03 00:45:41;;;;;;;33.47;15.82;;;3.30;99.90;;;;;;7403723;19;20096;-73
2023/12/03 00:48:12;;;;;;;41.58;15.40;;;3.30;99.90;;;;;;7381873;19;20002;-73
2023/12/03 00:50:40;;;;;;;;;;;3.30;99.90;;;;;;7383033;19;20010;-73
2023/12/03 00:53:09;;;;;;;30.15;11.38;;;3.30;99.90;;;;;;7382579;19;19921;-72
2023/12/03 00:55:38;;;;;;;24.48;11.73;;;3.30;99.90;;;;;;7381846;19;20284;-73
2023/12/03 00:58:07;;;;;;;29.30;10.93;;;3.20;99.90;;;;;;7380738;19;20051;-73
2023/12/03 01:00:36;;;;;;;24.83;10.82;;;3.20;99.90;;;;;;7403640;19;20021;-72
2023/12/03 01:03:05;;;;;;;30.75;11.82;;;3.10;99.90;;;;;;7381070;19;20028;-72
2023/12/03 01:05:36;;;;;;;33.88;11.65;;;3.10;99.90;;;;;;7381514;19;20011;-73
2023/12/03 01:08:04;;;;;;;;;;;3.10;99.90;;;;;;7380745;19;20678;-72
2023/12/03 01:10:33;;;;;;;28.35;9.13;;;3.10;99.90;;;;;;7384545;19;19911;-72
2023/12/03 01:13:02;;;;;;;21.33;9.15;;;3.10;99.90;;;;;;7382247;19;20010;-72
2023/12/03 01:15:33;;;;;;;30.25;11.25;;;3.10;99.90;;;;;;7403026;19;20070;-72
2023/12/03 01:21:15;;;;;;;28.77;11.15;;;3.00;99.90;;;;;;7391737;19;20033;-72
2023/12/03 01:23:44;;;;;;;26.02;11.02;;;3.10;99.90;;;;;;7393061;19;20026;-72
2023/12/03 01:26:13;;;;;;;24.80;11.25;;;3.10;99.90;;;;;;7390488;19;20003;-72
2023/12/03 01:28:41;;;;;;;32.10;11.40;;;3.10;99.90;;;;;;7392173;19;20028;-73
2023/12/03 01:31:10;;;;;;;36.85;11.60;;;3.10;99.90;;;;;;7386465;19;20062;-74
2023/12/03 01:33:39;;;;;;;22.00;10.02;;;3.10;99.90;;;;;;7402651;19;20007;-71
2023/12/03 01:36:11;;;;;;;29.67;10.85;;;3.10;99.90;;;;;;7379933;19;20010;-72
2023/12/03 01:38:42;;;;;;;25.50;10.73;;;3.10;99.90;;;;;;7380983;19;20010;-72
2023/12/03 01:41:11;;;;;;;;;;;3.10;99.90;;;;;;7381666;19;20028;-73
2023/12/03 01:43:49;;;;;;;21.85;10.20;;;3.10;99.90;;;;;;7380721;19;19990;-72
2023/12/03 01:46:18;;;;;;;42.75;12.27;;;3.10;99.90;;;;;;7380745;19;20014;-73
2023/12/03 01:48:47;;;;;;;30.65;10.70;;;3.20;99.90;;;;;;7399633;19;20003;-72
2023/12/03 01:51:16;;;;;;;23.15;10.40;;;3.10;99.90;;;;;;7379722;19;20003;-72
2023/12/03 01:53:49;;;;;;;28.02;10.45;;;3.10;99.90;;;;;;7379708;19;20003;-73
2023/12/03 01:56:19;;;;;;;27.52;11.20;;;3.00;99.90;;;;;;7379853;19;20010;-73
2023/12/03 01:58:48;;;;;;;26.10;11.80;;;3.00;99.90;;;;;;7381865;19;20468;-71
2023/12/03 02:01:17;;;;;;;26.50;10.88;;;3.00;99.90;;;;;;7380039;19;20007;-72
2023/12/03 02:03:46;;;;;;;27.55;10.52;;;3.00;99.90;;;;;;7401107;19;20417;-73
2023/12/03 02:06:14;;;;;;;24.77;10.93;;;3.10;99.90;;;;;;7379133;19;20030;-73
2023/12/03 02:08:43;;;;;;;33.90;10.50;;;3.10;99.90;;;;;;7377978;19;20066;-72
2023/12/03 02:11:17;;;;;;;27.02;11.18;;;3.10;99.90;;;;;;7379176;19;20020;-72
2023/12/03 02:13:47;;;;;;;27.13;10.70;;;3.10;99.90;;;;;;7379897;19;20031;-71
2023/12/03 02:16:16;;;;;;;28.85;11.68;;;3.10;99.90;;;;;;7379374;19;20012;-72
2023/12/03 02:18:45;;;;;;;21.77;10.38;;;3.00;99.90;;;;;;7397439;19;20017;-72
2023/12/03 02:21:13;;;;;;;24.73;10.05;;;3.00;99.90;;;;;;7378413;19;20027;-72
2023/12/03 02:23:46;;;;;;;27.88;11.02;;;3.10;99.90;;;;;;7378925;19;20022;-72
2023/12/03 02:26:15;;;;;;;30.40;10.73;;;3.10;99.90;;;;;;7378988;19;20262;-71
2023/12/03 02:28:44;;;;;;;25.38;9.88;;;3.20;99.90;;;;;;7379160;19;19999;-72
2023/12/03 02:31:10;;;;;;;28.25;10.80;;;3.20;99.90;;;;;;7379803;19;20024;-72
2023/12/03 02:33:39;;;;;;;28.10;11.32;;;3.20;99.90;;;;;;7398450;19;20007;-71
2023/12/03 02:36:08;;;;;;;36.25;12.30;;;3.30;99.90;;;;;;7378392;19;20011;-71
2023/12/03 02:38:37;;;;;;;38.00;13.82;;;3.30;99.90;;;;;;7379799;19;20003;-71
2023/12/03 02:41:10;;;;;;;39.45;14.55;;;3.30;99.90;;;;;;7378761;19;20286;-72
2023/12/03 02:43:39;;;;;;;27.88;10.98;;;3.30;99.90;;;;;;7378761;19;20003;-71
2023/12/03 02:46:09;;;;;;;31.58;11.95;;;3.30;99.90;;;;;;7378836;19;20015;-72
2023/12/03 02:48:38;;;;;;;27.07;11.70;;;3.30;99.90;;;;;;7402189;19;20011;-72
2023/12/03 02:51:08;;;;;;;33.47;11.93;;;3.30;99.90;;;;;;7377769;19;20534;-73
2023/12/03 02:53:38;;;;;;;46.95;13.77;;;3.40;99.90;;;;;;7378079;19;20075;-73
2023/12/03 02:56:10;;;;;;;28.08;12.13;;;3.40;99.90;;;;;;7378459;19;20007;-72
2023/12/03 02:58:39;;;;;;;27.17;11.70;;;3.40;99.90;;;;;;7378167;19;20062;-72
2023/12/03 03:01:09;;;;;;;28.65;11.18;;;3.40;99.90;;;;;;7379253;19;20098;-72
2023/12/03 03:03:37;;;;;;;31.95;12.85;;;3.50;99.90;;;;;;7399798;19;20006;-72
2023/12/03 03:06:06;;;;;;;27.10;12.18;;;3.50;99.90;;;;;;7380425;19;20062;-72
2023/12/03 03:08:35;;;;;;;29.50;11.63;;;3.50;99.90;;;;;;7376428;19;20346;-71
2023/12/03 03:11:04;;;;;;;27.13;11.35;;;3.50;99.90;;;;;;7377834;19;20074;-71
2023/12/03 03:13:35;;;;;;;33.13;12.32;;;3.60;99.90;;;;;;7377602;19;20311;-71
2023/12/03 03:16:04;;;;;;;;;;;3.60;99.90;;;;;;7377053;19;20010;-71
2023/12/03 03:18:33;;;;;;;26.98;10.52;;;3.60;99.90;;;;;;7397187;19;19936;-71
2023/12/03 03:21:04;;;;;;;31.17;12.00;;;3.60;99.90;;;;;;7377038;19;20070;-71
2023/12/03 03:23:33;;;;;;;28.25;10.93;;;3.60;99.90;;;;;;7377771;19;20281;-71
2023/12/03 03:26:02;;;;;;;38.17;13.02;;;3.60;99.90;;;;;;7377108;19;20072;-72
2023/12/03 03:28:30;;;;;;;30.58;12.60;;;3.70;99.90;;;;;;7377331;19;20265;-71
2023/12/03 03:31:01;;;;;;;32.22;11.52;;;3.70;99.90;;;;;;7380842;19;20019;-73
2023/12/03 03:33:30;;;;;;;;;;;3.70;99.90;;;;;;7406874;19;20054;-72
2023/12/03 03:36:00;;;;;;;38.15;12.05;;;3.70;99.90;;;;;;7383996;19;19903;-72
2023/12/03 03:38:28;;;;;;;35.75;13.75;;;3.70;99.90;;;;;;7383564;19;20006;-72
2023/12/03 03:40:57;;;;;;;35.28;13.10;;;3.70;99.90;;;;;;7389677;19;20003;-72
2023/12/03 03:43:26;;;;;;;31.60;13.05;;;3.70;99.90;;;;;;7391806;19;20006;-72
2023/12/03 03:45:55;;;;;;;42.50;14.07;;;3.70;99.90;;;;;;7392523;19;20019;-71
2023/12/03 03:48:26;;;;;;;36.92;14.13;;;3.70;99.90;;;;;;7415127;19;20003;-71
2023/12/03 03:50:54;;;;;;;;;;;3.70;99.90;;;;;;7392549;19;20075;-72
2023/12/03 03:53:23;;;;;;;31.10;12.50;;;3.70;99.90;;;;;;7391984;19;19907;-72
2023/12/03 03:55:52;;;;;;;34.72;13.48;;;3.70;99.90;;;;;;7384652;19;20002;-71
2023/12/03 03:58:21;;;;;;;36.45;14.73;;;3.70;99.90;;;;;;7386831;19;20398;-71
2023/12/03 04:00:49;;;;;;;32.10;12.40;;;3.70;99.90;;;;;;7405038;19;20393;-71
2023/12/03 04:03:18;;;;;;;40.47;14.45;;;3.70;99.90;;;;;;7383369;19;20075;-72
2023/12/03 04:05:49;;;;;;;33.95;12.98;;;3.60;99.90;;;;;;7383010;19;20014;-71
2023/12/03 04:08:18;;;;;;;;;;;3.70;99.90;;;;;;7384970;19;20058;-72
2023/12/03 04:10:46;;;;;;;35.83;13.50;;;3.70;99.90;;;;;;7385587;19;20239;-72
2023/12/03 04:13:15;;;;;;;31.20;13.07;;;3.60;99.90;;;;;;7384244;19;20029;-72
2023/12/03 04:15:44;;;;;;;38.38;14.70;;;3.60;99.90;;;;;;7404566;19;20007;-72
2023/12/03 04:18:12;;;;;;;32.38;14.32;;;3.60;99.90;;;;;;7381993;19;20078;-71
2023/12/03 04:20:41;;;;;;;32.03;13.63;;;3.60;99.90;;;;;;7382570;19;20457;-72
2023/12/03 04:23:12;;;;;;;43.17;15.18;;;3.70;99.90;;;;;;7383025;19;20058;-71
2023/12/03 04:25:41;;;;;;;35.40;13.60;;;3.70;99.90;;;;;;7382734;19;20529;-71
2023/12/03 04:28:09;;;;;;;39.03;12.95;;;3.70;99.90;;;;;;7385657;19;20070;-72
2023/12/03 04:30:38;;;;;;;31.55;14.13;;;3.70;99.90;;;;;;7406163;19;20354;-72
2023/12/03 04:33:07;;;;;;;37.63;14.05;;;3.70;99.90;;;;;;7382091;19;20016;-72
2023/12/03 04:35:35;;;;;;;36.15;13.43;;;3.70;99.90;;;;;;7382174;19;20289;-73
2023/12/03 04:38:04;;;;;;;45.53;15.32;;;3.70;99.90;;;;;;7382463;19;20009;-73
2023/12/03 04:40:35;;;;;;;45.63;15.02;;;3.70;99.90;;;;;;7384205;19;20419;-72
2023/12/03 04:43:04;;;;;;;;;;;3.70;99.90;;;;;;7381900;19;20015;-71
2023/12/03 04:45:32;;;;;;;32.03;12.23;;;3.80;99.90;;;;;;7403714;19;19910;-71
2023/12/03 04:48:01;;;;;;;46.55;14.63;;;3.80;99.90;;;;;;7384688;19;20007;-71
2023/12/03 04:50:30;;;;;;;37.00;14.32;;;3.80;99.90;;;;;;7381714;19;20058;-72
2023/12/03 04:52:58;;;;;;;47.60;15.57;;;3.80;99.90;;;;;;7382717;19;20048;-72
2023/12/03 04:55:30;;;;;;;44.58;15.40;;;3.90;99.90;;;;;;7381805;19;20275;-72
2023/12/03 04:58:01;;;;;;;;;;;3.90;99.90;;;;;;7382378;19;20393;-72
2023/12/03 05:00:29;;;;;;;39.58;13.75;;;4.00;99.90;;;;;;7401426;19;19978;-72
2023/12/03 05:02:58;;;;;;;41.13;14.55;;;4.00;99.90;;;;;;7381083;19;20003;-73
2023/12/03 05:05:27;;;;;;;38.95;16.55;;;4.00;99.90;;;;;;7381999;19;20005;-72
2023/12/03 05:07:55;;;;;;;47.28;15.73;;;4.10;99.90;;;;;;7381798;19;20015;-73
2023/12/03 05:10:24;;;;;;;33.95;13.98;;;4.10;99.90;;;;;;7381619;19;20066;-74
2023/12/03 05:12:53;;;;;;;44.10;15.02;;;4.10;99.90;;;;;;7400121;19;20365;-73
2023/12/03 05:15:24;;;;;;;37.95;15.32;;;4.10;99.90;;;;;;7402897;19;20014;-72
2023/12/03 05:17:52;;;;;;;;;;;4.10;99.90;;;;;;7381523;19;20019;-72
2023/12/03 05:20:21;;;;;;;47.08;14.07;;;4.20;99.90;;;;;;7380622;19;19911;-71
2023/12/03 05:22:53;;;;;;;39.15;15.25;;;4.20;99.90;;;;;;7383697;19;20010;-71
2023/12/03 05:25:22;;;;;;;42.83;16.10;;;4.20;99.90;;;;;;7381292;19;20006;-71
2023/12/03 05:27:51;;;;;;;47.50;16.23;;;4.20;99.90;;;;;;7403082;19;20002;-71
2023/12/03 05:30:20;;;;;;;45.50;16.17;;;4.20;99.90;;;;;;7380623;19;20070;-72
2023/12/03 05:32:51;;;;;;;41.72;15.32;;;4.30;99.90;;;;;;7380403;19;20109;-72
2023/12/03 05:35:20;;;;;;;;;;;4.30;99.90;;;;;;7381586;19;20023;-71
2023/12/03 05:37:48;;;;;;;39.03;15.00;;;4.30;99.90;;;;;;7381679;19;19915;-71
2023/12/03 05:40:17;;;;;;;38.08;14.93;;;4.30;99.90;;;;;;7381079;19;20378;-71
2023/12/03 05:42:46;;;;;;;50.03;17.27;;;4.30;99.90;;;;;;7401998;19;20018;-72
2023/12/03 05:45:15;;;;;;;45.83;16.02;;;4.40;99.90;;;;;;7379789;19;20007;-72
2023/12/03 05:47:44;;;;;;;42.13;15.20;;;4.40;99.90;;;;;;7380129;19;20051;-71
2023/12/03 05:50:15;;;;;;;41.00;15.55;;;4.40;99.90;;;;;;7380536;19;20006;-72
2023/12/03 05:52:44;;;;;;;45.65;15.82;;;4.40;99.90;;;;;;7380662;19;20010;-72
2023/12/03 05:55:13;;;;;;;38.50;15.30;;;4.40;99.90;;;;;;7380586;19;20261;-71
2023/12/03 05:57:41;;;;;;;43.55;16.42;;;4.50;99.90;;;;;;7401437;19;20024;-71
2023/12/03 06:00:11;;;;;;;43.20;15.30;;;4.50;99.90;;;;;;7377756;19;20007;-71
2023/12/03 06:02:40;;;;;;;41.38;15.60;;;4.40;99.90;;;;;;7379452;19;20007;-71
2023/12/03 06:05:09;;;;;;;54.13;18.25;;;4.40;99.90;;;;;;7379606;19;20027;-72
2023/12/03 06:07:41;;;;;;;47.67;16.73;;;4.40;99.90;;;;;;7380534;19;20016;-71
2023/12/03 06:10:10;;;;;;;47.22;15.80;;;4.40;99.90;;;;;;7386399;19;20010;-72
2023/12/03 06:12:39;;;;;;;40.03;15.80;;;4.40;99.90;;;;;;7410471;19;20203;-71
2023/12/03 06:15:09;;;;;;;39.13;16.73;;;4.50;99.90;;;;;;7385474;19;20020;-72
2023/12/03 06:17:38;;;;;;;40.22;16.70;;;4.50;99.90;;;;;;7385938;19;20014;-71
2023/12/03 06:20:08;;;;;;;38.47;15.70;;;4.50;99.90;;;;;;7381808;19;20175;-71
2023/12/03 06:22:38;;;;;;;47.47;16.75;;;4.50;99.90;;;;;;7379506;19;20277;-72
2023/12/03 06:25:09;;;;;;;42.17;15.10;;;4.60;99.90;;;;;;7378664;19;20023;-72
2023/12/03 06:27:40;;;;;;;40.67;16.02;;;4.50;99.90;;;;;;7400052;19;20374;-72
2023/12/03 06:30:10;;;;;;;42.77;16.37;;;4.50;99.90;;;;;;7381838;19;20010;-73
2023/12/03 06:32:39;;;;;;;46.03;18.02;;;4.60;99.90;;;;;;7378414;19;20247;-72
2023/12/03 06:35:10;;;;;;;47.15;15.85;;;4.60;99.90;;;;;;7379109;19;20093;-72
2023/12/03 06:37:40;;;;;;;41.42;16.40;;;4.60;99.90;;;;;;7378757;19;20015;-72
2023/12/03 06:40:13;;;;;;;49.03;16.13;;;4.60;99.90;;;;;;7379538;19;20014;-72
2023/12/03 06:42:41;;;;;;;49.05;16.33;;;4.60;99.90;;;;;;7399599;19;20408;-72
2023/12/03 06:45:11;;;;;;;39.58;14.98;;;4.60;99.90;;;;;;7377274;19;20025;-72
2023/12/03 06:47:40;;;;;;;45.15;15.55;;;4.60;99.90;;;;;;7378303;19;20006;-73
2023/12/03 06:50:10;;;;;;;40.95;15.02;;;4.60;99.90;;;;;;7378491;19;20006;-72
2023/12/03 06:52:38;;;;;;;48.85;15.38;;;4.60;99.90;;;;;;7378190;19;20331;-72
2023/12/03 06:55:08;;;;;;;44.65;15.38;;;4.60;99.90;;;;;;7378171;19;20006;-72
2023/12/03 06:57:39;;;;;;;34.03;13.95;;;4.60;99.90;;;;;;7399423;19;20014;-71
2023/12/03 07:00:09;;;;;;;32.30;13.85;;;4.60;99.90;;;;;;7376501;19;20016;-72
2023/12/03 07:02:38;;;;;;;39.30;14.67;;;4.60;99.90;;;;;;7378025;19;20003;-72
2023/12/03 07:05:08;;;;;;;44.53;15.85;;;4.60;99.90;;;;;;7376678;19;20059;-72
2023/12/03 07:07:36;;;;;;;32.97;14.38;;;4.60;99.90;;;;;;7378410;19;20066;-72
2023/12/03 07:10:05;;;;;;;34.17;14.00;;;4.60;99.90;;;;;;7377491;19;20402;-72
2023/12/03 07:12:34;;;;;;;40.83;14.65;;;4.60;99.90;;;;;;7399695;19;20027;-72
2023/12/03 07:15:06;;;;;;;37.38;14.18;;;4.60;99.90;;;;;;7377243;19;20480;-73
2023/12/03 07:17:35;;;;;;;40.13;15.23;;;4.60;99.90;;;;;;7377485;19;20002;-73
2023/12/03 07:20:03;;;;;;;31.13;13.93;;;4.60;99.90;;;;;;7378278;19;20027;-72
2023/12/03 07:22:32;;;;;;;32.88;14.52;;;4.50;99.90;;;;;;7378087;19;20011;-72
2023/12/03 07:25:02;;;;;;;29.90;14.20;;;4.50;99.90;;;;;;7380388;19;20470;-71
2023/12/03 07:27:31;;;;;;;34.03;13.73;;;4.60;99.90;;;;;;7399302;19;20010;-72
2023/12/03 07:30:00;;;;;;;38.67;15.75;;;4.60;99.90;;;;;;7377234;19;20067;-71
2023/12/03 07:32:31;;;;;;;37.75;14.88;;;4.60;99.90;;;;;;7377469;19;20003;-72
2023/12/03 07:35:00;;;;;;;32.65;14.05;;;4.50;99.90;;;;;;7378452;19;20019;-72
2023/12/03 07:37:29;;;;;;;38.42;13.98;;;4.60;99.90;;;;;;7378696;19;20023;-73
2023/12/03 07:39:58;;;;;;;35.25;12.90;;;4.50;99.90;;;;;;7378209;19;20048;-73
2023/12/03 07:42:27;;;;;;;37.03;14.50;;;4.50;99.90;;;;;;7400566;19;20023;-71
2023/12/03 07:44:56;;;;;;;61.97;16.90;;;4.50;99.90;;;;;;7376377;19;20102;-72
2023/12/03 07:47:25;;;;;;;40.33;14.63;;;4.60;99.90;;;;;;7376605;19;20010;-73
2023/12/03 07:49:56;;;;;;;36.25;13.80;;;4.60;99.90;;;;;;7377174;19;20011;-73
2023/12/03 07:52:24;;;;;;;33.10;13.35;;;4.60;99.90;;;;;;7377230;19;20027;-73
2023/12/03 07:54:53;;;;;;;62.83;16.45;;;4.70;99.90;;;;;;7392884;19;20013;-72
2023/12/03 07:57:22;;;;;;;90.85;15.93;;;4.70;99.90;;;;;;7398495;19;20011;-73
2023/12/03 07:59:50;;;;;;;44.92;14.68;;;4.70;99.90;;;;;;7376050;19;20078;-72
2023/12/03 08:02:19;;;;;;;41.40;16.40;;;4.70;99.90;;;;;;7376696;19;20285;-72
2023/12/03 08:04:48;;;;;;;48.03;15.88;;;4.70;99.90;;;;;;7376965;19;20011;-72
2023/12/03 08:07:19;;;;;;;232.30;26.75;;;4.70;99.90;;;;;;7376601;19;20032;-72
2023/12/03 08:09:48;;;;;;;;;;;4.70;99.90;;;;;;7399933;19;20010;-72
2023/12/03 08:12:17;;;;;;;38.28;13.85;;;4.70;99.90;;;;;;7379123;19;19925;-72
2023/12/03 08:14:45;;;;;;;39.67;14.45;;;4.60;99.90;;;;;;7375492;19;20134;-71
2023/12/03 08:17:15;;;;;;;40.60;14.88;;;4.70;99.90;;;;;;7376935;19;20282;-71
2023/12/03 08:19:43;;;;;;;162.10;20.08;;;4.70;99.90;;;;;;7382573;19;20024;-71
2023/12/03 08:22:12;;;;;;;38.72;14.75;;;4.80;99.90;;;;;;7383265;19;20072;-71
2023/12/03 08:24:43;;;;;;;31.48;13.45;;;4.80;99.90;;;;;;7405484;19;20062;-72
2023/12/03 08:27:12;;;;;;;35.10;14.32;;;4.80;99.90;;;;;;7385367;19;20006;-72
2023/12/03 08:29:41;;;;;;;35.53;14.70;;;4.80;99.90;;;;;;7383620;19;20006;-72
2023/12/03 08:32:10;;;;;;;44.45;14.77;;;4.80;99.90;;;;;;7382818;19;20685;-73
2023/12/03 08:34:38;;;;;;;45.47;13.85;;;4.80;99.90;;;;;;7386600;19;20006;-73
2023/12/03 08:37:07;;;;;;;38.10;14.48;;;4.70;99.90;;;;;;7390399;19;20006;-72
2023/12/03 08:39:36;;;;;;;29.17;13.52;;;4.80;99.90;;;;;;7413460;19;20011;-73
2023/12/03 08:42:07;;;;;;;37.17;14.63;;;4.80;99.90;;;;;;7388645;19;20306;-73
2023/12/03 08:44:36;;;;;;;27.33;13.55;;;4.70;99.90;;;;;;7389695;19;20079;-71
2023/12/03 08:47:05;;;;;;;28.30;12.30;;;4.70;99.90;;;;;;7390239;19;20010;-72
2023/12/03 08:49:34;;;;;;;46.38;13.80;;;4.70;99.90;;;;;;7383941;19;20031;-71
2023/12/03 08:52:02;;;;;;;32.60;12.68;;;4.80;99.90;;;;;;7382558;19;20015;-72
2023/12/03 08:54:31;;;;;;;41.28;13.43;;;4.90;99.90;;;;;;7404666;19;20007;-72
2023/12/03 08:57:00;;;;;;;34.17;12.85;;;4.90;99.90;;;;;;7381689;19;20006;-73
2023/12/03 08:59:31;;;;;;;31.83;13.82;;;5.00;99.90;;;;;;7382155;19;20011;-73
2023/12/03 09:01:59;;;;;;;;;;;4.90;99.90;;;;;;7383684;19;20303;-73
2023/12/03 09:04:28;;;;;;;28.45;11.27;;;4.80;99.90;;;;;;7382157;19;20341;-72
2023/12/03 09:06:57;;;;;;;28.90;11.73;;;4.90;99.90;;;;;;7381785;19;20006;-73
2023/12/03 09:09:25;;;;;;;41.67;13.13;;;4.90;99.90;;;;;;7404900;19;20374;-74
2023/12/03 09:11:57;;;;;;;32.00;13.15;;;4.80;99.90;;;;;;7382771;19;20078;-72
2023/12/03 09:14:27;;;;;;;27.20;12.30;;;4.90;99.90;;;;;;7381992;19;20144;-73
2023/12/03 09:16:59;;;;;;;33.58;13.45;;;5.00;99.90;;;;;;7382241;19;20006;-73
2023/12/03 09:19:27;;;;;;;;;;;5.00;99.90;;;;;;7383723;19;20011;-73
2023/12/03 09:21:56;;;;;;;31.10;11.52;;;5.10;99.90;;;;;;7379622;19;19931;-74
2023/12/03 09:24:25;;;;;;;27.38;11.35;;;5.10;99.90;;;;;;7402423;19;20007;-73
2023/12/03 09:26:53;;;;;;;30.17;12.02;;;5.00;99.90;;;;;;7381237;19;20023;-73
2023/12/03 09:29:22;;;;;;;31.17;13.18;;;5.10;99.90;;;;;;7384663;19;20016;-76
2023/12/03 09:31:51;;;;;;;33.28;12.63;;;5.10;99.90;;;;;;7386701;19;20006;-77
2023/12/03 09:34:22;;;;;;;35.95;13.38;;;5.20;99.90;;;;;;7383119;19;20011;-76
2023/12/03 09:36:51;;;;;;;;;;;5.10;99.90;;;;;;7405108;19;20010;-76
2023/12/03 09:39:19;;;;;;;35.47;11.18;;;5.10;99.90;;;;;;7384962;19;19990;-77
2023/12/03 09:41:53;;;;;;;32.45;11.43;;;5.20;99.90;;;;;;7381694;19;20020;-77
2023/12/03 09:44:27;;;;;;;29.30;12.98;;;5.00;99.90;;;;;;7389102;19;20099;-79
2023/12/03 09:47:16;;;;;;;24.00;11.23;;;5.10;99.90;;;;;;7390118;19;20006;-79
2023/12/03 09:50:00;;;;;;;30.30;12.98;;;5.20;99.90;;;;;;7386342;19;20006;-78
2023/12/03 09:52:32;;;;;;;26.35;11.35;;;5.20;99.90;;;;;;7383231;19;20006;-78
2023/12/03 09:55:01;;;;;;;27.10;11.57;;;5.30;99.90;;;;;;7384071;19;20002;-77
2023/12/03 09:57:31;;;;;;;36.20;13.07;;;5.30;99.90;;;;;;7408426;19;20010;-77
2023/12/03 10:00:01;;;;;;;29.92;12.95;;;5.30;99.90;;;;;;7383604;19;20124;-77
2023/12/03 10:02:31;;;;;;;27.45;11.57;;;5.30;99.90;;;;;;7380994;19;20010;-77
2023/12/03 10:05:03;;;;;;;29.23;11.05;;;5.30;99.90;;;;;;7382736;19;20009;-78
2023/12/03 10:07:33;;;;;;;29.08;12.07;;;5.40;99.90;;;;;;7382560;19;20003;-76
2023/12/03 10:10:04;;;;;;;28.58;11.93;;;5.40;99.90;;;;;;7381516;19;20014;-77
2023/12/03 10:13:00;;;;;;;27.15;11.68;;;5.50;99.90;;;;;;7405672;19;20002;-79
2023/12/03 10:15:28;;;;;;;24.95;11.10;;;5.50;99.90;;;;;;7384887;19;20002;-79
2023/12/03 10:18:00;;;;;;;34.60;12.02;;;5.50;99.90;;;;;;7382849;19;20011;-78
2023/12/03 10:20:35;;;;;;;28.77;12.40;;;5.60;99.90;;;;;;7383288;19;20010;-78
2023/12/03 10:23:05;;;;;;;26.27;11.57;;;5.60;99.90;;;;;;7385021;19;20010;-77
2023/12/03 10:25:35;;;;;;;29.58;11.38;;;5.60;99.90;;;;;;7378276;19;20223;-76
2023/12/03 10:28:05;;;;;;;27.83;10.85;;;5.70;99.90;;;;;;7382279;19;20014;-77
2023/12/03 10:30:35;;;;;;;31.23;11.70;;;5.70;99.90;;;;;;7404591;19;20006;-74
2023/12/03 10:33:04;;;;;;;26.90;11.75;;;5.80;99.90;;;;;;7377932;19;20003;-74
2023/12/03 10:35:38;;;;;;;26.90;10.57;;;5.90;99.90;;;;;;7378347;19;20062;-74
2023/12/03 10:38:09;;;;;;;26.73;12.27;;;6.00;99.90;;;;;;7378597;19;20011;-75
2023/12/03 10:40:37;;;;;;;26.77;11.45;;;6.00;99.90;;;;;;7378572;19;20006;-74
2023/12/03 10:43:06;;;;;;;28.70;11.68;;;5.80;99.90;;;;;;7378278;19;20365;-75
2023/12/03 10:45:35;;;;;;;23.63;11.45;;;5.80;99.90;;;;;;7403795;19;20382;-75
2023/12/03 10:48:04;;;;;;;28.65;11.65;;;5.90;99.90;;;;;;7377528;19;19999;-74
2023/12/03 10:50:33;;;;;;;28.75;12.45;;;5.90;99.90;;;;;;7377855;19;20341;-74
2023/12/03 10:53:04;;;;;;;32.20;11.25;;;5.90;99.90;;;;;;7378807;19;20112;-76
2023/12/03 10:55:34;;;;;;;35.28;11.98;;;5.90;99.90;;;;;;7378239;19;20406;-73
2023/12/03 10:58:05;;;;;;;24.40;9.95;;;6.00;99.90;;;;;;7378462;19;20358;-74
2023/12/03 11:00:42;;;;;;;23.15;11.52;;;5.90;99.90;;;;;;7406132;19;20070;-76
2023/12/03 11:03:17;;;;;;;25.00;10.75;;;6.00;99.90;;;;;;7378369;19;20014;-75
2023/12/03 11:05:53;;;;;;;26.58;11.23;;;6.00;99.90;;;;;;7386466;19;20030;-75
2023/12/03 11:08:27;;;;;;;25.92;11.10;;;6.10;99.90;;;;;;7377990;19;20011;-78
2023/12/03 11:10:57;;;;;;;32.63;12.02;;;5.90;99.90;;;;;;7380089;19;20010;-75
2023/12/03 11:13:26;;;;;;;25.02;11.63;;;5.80;99.90;;;;;;7379345;19;20058;-75
2023/12/03 11:15:58;;;;;;;23.88;10.95;;;5.80;99.90;;;;;;7387162;19;20019;-77
2023/12/03 11:18:28;;;;;;;23.65;11.07;;;5.90;99.90;;;;;;7407949;19;20014;-76
2023/12/03 11:21:06;;;;;;;23.27;9.82;;;6.00;99.90;;;;;;7389031;19;20010;-74
2023/12/03 11:23:48;;;;;;;19.38;9.93;;;6.00;99.90;;;;;;7390192;19;20007;-75
2023/12/03 11:26:18;;;;;;;23.27;10.15;;;6.10;99.90;;;;;;7388649;19;20106;-75
2023/12/03 11:28:54;;;;;;;20.55;9.82;;;6.10;99.90;;;;;;7387783;19;20040;-75
2023/12/03 11:31:22;;;;;;;20.73;9.10;;;6.20;99.90;;;;;;7380223;19;20381;-74
2023/12/03 11:33:57;;;;;;;18.23;9.55;;;6.20;99.90;;;;;;7399871;19;20067;-74
2023/12/03 11:36:37;;;;;;;19.65;9.13;;;6.30;99.90;;;;;;7379718;19;20696;-74
2023/12/03 11:39:09;;;;;;;20.30;9.38;;;6.30;99.90;;;;;;7381197;19;20014;-75
2023/12/03 11:41:44;;;;;;;22.05;9.85;;;6.30;99.90;;;;;;7378016;19;20259;-75
2023/12/03 11:44:20;;;;;;;22.95;8.93;;;6.30;99.90;;;;;;7377197;19;20028;-75
2023/12/03 11:46:51;;;;;;;18.23;8.43;;;6.30;99.90;;;;;;7377635;19;20017;-75
2023/12/03 11:49:20;;;;;;;22.33;8.90;;;6.20;99.30;;;;;;7377864;19;20003;-75
2023/12/03 11:51:49;;;;;;;28.02;9.52;;;6.30;99.40;;;;;;7402689;19;20524;-74
2023/12/03 11:54:28;;;;;;;19.35;8.27;;;6.30;99.30;;;;;;7385643;19;20007;-73
2023/12/03 11:56:57;;;;;;;18.98;8.82;;;6.10;98.90;;;;;;7388003;19;20009;-73
2023/12/03 11:59:26;;;;;;;20.85;8.98;;;6.30;99.60;;;;;;7385238;19;20002;-73
2023/12/03 12:01:54;;;;;;;18.83;8.25;;;6.30;99.00;;;;;;7381866;19;20229;-74
2023/12/03 12:04:23;;;;;;;19.50;8.18;;;6.50;98.10;;;;;;7383904;19;20074;-73
2023/12/03 12:06:53;;;;;;;19.48;8.57;;;6.50;98.40;;;;;;7406667;19;20353;-75
2023/12/03 12:09:28;;;;;;;18.77;8.63;;;6.50;98.10;;;;;;7380444;19;20015;-74
2023/12/03 12:11:57;;;;;;;18.92;8.95;;;6.60;98.10;;;;;;7384472;19;20074;-74
2023/12/03 12:14:26;;;;;;;26.48;10.73;;;6.70;98.10;;;;;;7383706;19;20031;-75
2023/12/03 12:16:55;;;;;;;19.38;8.85;;;6.80;98.70;;;;;;7384570;19;20020;-74
2023/12/03 12:19:24;;;;;;;18.75;9.07;;;6.70;98.30;;;;;;7383488;19;20027;-74
2023/12/03 12:21:54;;;;;;;19.52;8.90;;;6.80;98.10;;;;;;7403522;19;20018;-74
2023/12/03 12:24:23;;;;;;;19.17;9.27;;;6.80;97.90;;;;;;7408530;19;20002;-73
2023/12/03 12:26:54;;;;;;;19.98;8.90;;;6.80;97.90;;;;;;7385336;19;20016;-75
2023/12/03 12:29:24;;;;;;;19.35;8.82;;;6.80;98.00;;;;;;7384389;19;20010;-75
2023/12/03 12:31:53;;;;;;;21.08;9.88;;;6.90;98.20;;;;;;7382985;19;20082;-74
2023/12/03 12:34:24;;;;;;;29.02;11.30;;;6.90;98.20;;;;;;7383749;19;20010;-74
2023/12/03 12:37:07;;;;;;;19.90;9.10;;;6.90;98.40;;;;;;7401442;19;20541;-74
2023/12/03 12:39:36;;;;;;;16.50;8.40;;;6.90;98.60;;;;;;7405113;19;20011;-74
2023/12/03 12:42:09;;;;;;;21.05;9.52;;;7.00;98.30;;;;;;7381340;19;20011;-75
2023/12/03 12:44:42;;;;;;;23.85;9.77;;;7.00;98.20;;;;;;7384087;19;20365;-76
2023/12/03 12:47:12;;;;;;;20.20;8.57;;;6.90;98.20;;;;;;7382660;19;20372;-75
2023/12/03 12:49:44;;;;;;;25.58;8.55;;;7.00;98.10;;;;;;7383068;19;20288;-75
2023/12/03 12:52:17;;;;;;;18.55;8.75;;;7.00;98.10;;;;;;7383383;19;20016;-75
2023/12/03 12:54:47;;;;;;;20.60;9.18;;;7.10;98.20;;;;;;7404771;19;20015;-76
2023/12/03 12:57:20;;;;;;;20.67;8.35;;;7.10;98.00;;;;;;7382798;19;20070;-74
2023/12/03 12:59:50;;;;;;;24.08;10.25;;;7.20;97.70;;;;;;7383079;19;20013;-75